sensor_id;sensor_type;location;lat;lon;timestamp;pressure;altitude;pressure_sealevel;temperature;humidity
64340;BME280;63709;53.258;-8.814;2023-05-08T00:00:10;101089.66;;;17.89;100.00
64340;BME280;63709;53.258;-8.814;2023-05-08T00:05:57;101082.34;;;17.82;100.00
64340;BME280;63709;53.258;-8.814;2023-05-08T00:11:44;101085.41;;;17.87;100.00
64340;BME280;63709;53.258;-8.814;2023-05-08T00:17:31;101085.41;;;17.87;100.00
64340;BME280;63709;53.258;-8.814;2023-05-08T00:23:18;101082.16;;;18.01;100.00
64340;BME280;63709;53.258;-8.814;2023-05-08T00:29:07;101077.00;;;17.90;100.00
64340;BME280;63709;53.258;-8.814;2023-05-08T00:37:47;101078.31;;;17.86;100.00
64340;BME280;63709;53.258;-8.814;2023-05-08T00:47:30;101077.00;;;17.90;100.00
64340;BME280;63709;53.258;-8.814;2023-05-08T00:53:21;101079.38;;;17.93;100.00
64340;BME280;63709;53.258;-8.814;2023-05-08T00:59:10;101077.69;;;17.92;100.00
64340;BME280;63709;53.258;-8.814;2023-05-08T01:04:59;101065.72;;;17.95;100.00
64340;BME280;63709;53.258;-8.814;2023-05-08T01:16:43;101078.00;;;18.07;100.00
64340;BME280;63709;53.258;-8.814;2023-05-08T01:40:51;101072.81;;;18.13;100.00
64340;BME280;63709;53.258;-8.814;2023-05-08T01:49:38;101074.31;;;18.16;100.00
64340;BME280;63709;53.258;-8.814;2023-05-08T01:55:30;101079.06;;;18.14;100.00
64340;BME280;63709;53.258;-8.814;2023-05-08T02:01:22;101088.38;;;18.20;100.00
64340;BME280;63709;53.258;-8.814;2023-05-08T02:07:11;101075.03;;;18.18;100.00
64340;BME280;63709;53.258;-8.814;2023-05-08T02:12:59;101082.47;;;18.24;100.00
64340;BME280;63709;53.258;-8.814;2023-05-08T02:18:52;101074.44;;;18.32;100.00
64340;BME280;63709;53.258;-8.814;2023-05-08T02:24:42;101084.06;;;18.35;100.00
64340;BME280;63709;53.258;-8.814;2023-05-08T02:30:30;101090.53;;;18.42;100.00
64340;BME280;63709;53.258;-8.814;2023-05-08T02:36:19;101070.38;;;18.28;100.00
64340;BME280;63709;53.258;-8.814;2023-05-08T02:42:07;101098.50;;;18.44;100.00
64340;BME280;63709;53.258;-8.814;2023-05-08T02:48:11;101100.41;;;18.51;100.00
64340;BME280;63709;53.258;-8.814;2023-05-08T02:54:09;101104.44;;;18.47;100.00
64340;BME280;63709;53.258;-8.814;2023-05-08T03:05:56;101083.22;;;18.34;100.00
64340;BME280;63709;53.258;-8.814;2023-05-08T03:11:55;101101.25;;;18.52;100.00
64340;BME280;63709;53.258;-8.814;2023-05-08T03:17:45;101104.72;;;18.36;100.00
64340;BME280;63709;53.258;-8.814;2023-05-08T03:23:34;101123.19;;;18.49;100.00
64340;BME280;63709;53.258;-8.814;2023-05-08T03:29:23;101133.06;;;18.32;100.00
64340;BME280;63709;53.258;-8.814;2023-05-08T03:35:12;101117.47;;;18.26;100.00
64340;BME280;63709;53.258;-8.814;2023-05-08T03:41:00;101127.25;;;18.27;100.00
64340;BME280;63709;53.258;-8.814;2023-05-08T03:43:35;101118.31;;;18.26;100.00
64340;BME280;63709;53.258;-8.814;2023-05-08T03:49:24;101126.25;;;18.28;100.00
64340;BME280;63709;53.258;-8.814;2023-05-08T03:55:12;101110.38;;;18.25;100.00
64340;BME280;63709;53.258;-8.814;2023-05-08T04:07:26;101131.56;;;18.37;100.00
64340;BME280;63709;53.258;-8.814;2023-05-08T04:19:42;101130.09;;;18.17;100.00
64340;BME280;63709;53.258;-8.814;2023-05-08T04:25:32;101140.00;;;18.17;100.00
64340;BME280;63709;53.258;-8.814;2023-05-08T04:31:21;101133.94;;;18.14;100.00
64340;BME280;63709;53.258;-8.814;2023-05-08T04:37:23;101127.09;;;18.02;100.00
64340;BME280;63709;53.258;-8.814;2023-05-08T04:43:11;101142.66;;;18.08;100.00
64340;BME280;63709;53.258;-8.814;2023-05-08T04:48:58;101156.63;;;18.04;100.00
64340;BME280;63709;53.258;-8.814;2023-05-08T04:54:45;101143.53;;;17.91;100.00
64340;BME280;63709;53.258;-8.814;2023-05-08T05:00:33;101137.44;;;17.89;100.00
64340;BME280;63709;53.258;-8.814;2023-05-08T05:06:02;101148.22;;;17.89;100.00
64340;BME280;63709;53.258;-8.814;2023-05-08T05:11:49;101143.06;;;17.78;100.00
64340;BME280;63709;53.258;-8.814;2023-05-08T05:17:36;101132.44;;;17.76;100.00
64340;BME280;63709;53.258;-8.814;2023-05-08T05:23:23;101135.66;;;17.80;100.00
64340;BME280;63709;53.258;-8.814;2023-05-08T05:29:10;101133.53;;;17.74;100.00
64340;BME280;63709;53.258;-8.814;2023-05-08T05:34:57;101146.97;;;17.65;100.00
64340;BME280;63709;53.258;-8.814;2023-05-08T05:40:44;101142.22;;;17.77;100.00
64340;BME280;63709;53.258;-8.814;2023-05-08T05:43:11;101153.44;;;17.73;100.00
64340;BME280;63709;53.258;-8.814;2023-05-08T05:48:58;101161.66;;;17.81;100.00
64340;BME280;63709;53.258;-8.814;2023-05-08T05:54:45;101161.66;;;17.81;100.00
64340;BME280;63709;53.258;-8.814;2023-05-08T06:00:32;101158.13;;;17.80;100.00
64340;BME280;63709;53.258;-8.814;2023-05-08T06:06:20;101184.34;;;17.88;100.00
64340;BME280;63709;53.258;-8.814;2023-05-08T06:12:07;101185.19;;;17.88;100.00
64340;BME280;63709;53.258;-8.814;2023-05-08T06:17:54;101189.81;;;17.96;100.00
64340;BME280;63709;53.258;-8.814;2023-05-08T06:23:41;101205.09;;;18.05;100.00
64340;BME280;63709;53.258;-8.814;2023-05-08T06:29:28;101167.44;;;17.86;100.00
64340;BME280;63709;53.258;-8.814;2023-05-08T06:35:15;101186.75;;;17.91;100.00
64340;BME280;63709;53.258;-8.814;2023-05-08T06:37:49;101171.81;;;17.87;100.00
64340;BME280;63709;53.258;-8.814;2023-05-08T06:43:36;101180.56;;;17.99;100.00
64340;BME280;63709;53.258;-8.814;2023-05-08T06:49:23;101172.00;;;18.03;100.00
64340;BME280;63709;53.258;-8.814;2023-05-08T06:55:10;101182.72;;;18.13;100.00
64340;BME280;63709;53.258;-8.814;2023-05-08T07:01:00;101201.19;;;18.18;100.00
64340;BME280;63709;53.258;-8.814;2023-05-08T07:06:48;101197.69;;;18.07;100.00
64340;BME280;63709;53.258;-8.814;2023-05-08T07:12:35;101197.28;;;18.20;100.00
64340;BME280;63709;53.258;-8.814;2023-05-08T07:18:22;101187.03;;;18.24;100.00
64340;BME280;63709;53.258;-8.814;2023-05-08T07:24:09;101177.16;;;18.32;100.00
64340;BME280;63709;53.258;-8.814;2023-05-08T07:29:56;101192.56;;;18.40;100.00
64340;BME280;63709;53.258;-8.814;2023-05-08T07:35:45;101188.25;;;18.47;100.00
64340;BME280;63709;53.258;-8.814;2023-05-08T07:41:32;101188.88;;;18.41;100.00
64340;BME280;63709;53.258;-8.814;2023-05-08T07:43:57;101201.06;;;18.45;100.00
64340;BME280;63709;53.258;-8.814;2023-05-08T07:49:52;101207.63;;;18.43;100.00
64340;BME280;63709;53.258;-8.814;2023-05-08T07:55:39;101212.41;;;18.31;100.00
64340;BME280;63709;53.258;-8.814;2023-05-08T07:58:04;101200.53;;;18.24;100.00
64340;BME280;63709;53.258;-8.814;2023-05-08T08:00:30;101206.03;;;18.32;100.00
64340;BME280;63709;53.258;-8.814;2023-05-08T08:02:56;101196.75;;;18.34;100.00
64340;BME280;63709;53.258;-8.814;2023-05-08T08:05:22;101211.75;;;18.29;100.00
64340;BME280;63709;53.258;-8.814;2023-05-08T08:07:47;101200.22;;;18.27;100.00
64340;BME280;63709;53.258;-8.814;2023-05-08T08:10:13;101216.75;;;18.42;100.00
64340;BME280;63709;53.258;-8.814;2023-05-08T08:16:00;101212.19;;;18.42;100.00
64340;BME280;63709;53.258;-8.814;2023-05-08T08:21:50;101204.53;;;18.55;100.00
64340;BME280;63709;53.258;-8.814;2023-05-08T08:27:37;101194.75;;;18.80;100.00
64340;BME280;63709;53.258;-8.814;2023-05-08T08:33:26;101199.41;;;18.96;100.00
64340;BME280;63709;53.258;-8.814;2023-05-08T08:39:14;101197.81;;;19.20;100.00
64340;BME280;63709;53.258;-8.814;2023-05-08T08:45:01;101202.59;;;19.26;100.00
64340;BME280;63709;53.258;-8.814;2023-05-08T08:50:51;101196.03;;;19.28;100.00
64340;BME280;63709;53.258;-8.814;2023-05-08T08:53:25;101192.22;;;19.13;100.00
64340;BME280;63709;53.258;-8.814;2023-05-08T08:55:53;101215.50;;;19.32;100.00
64340;BME280;63709;53.258;-8.814;2023-05-08T08:58:33;101176.75;;;18.97;100.00
64340;BME280;63709;53.258;-8.814;2023-05-08T09:01:01;101211.00;;;19.15;100.00
64340;BME280;63709;53.258;-8.814;2023-05-08T09:03:29;101207.81;;;19.19;100.00
64340;BME280;63709;53.258;-8.814;2023-05-08T09:06:00;101224.56;;;19.23;100.00
64340;BME280;63709;53.258;-8.814;2023-05-08T09:08:26;101225.97;;;19.35;100.00
64340;BME280;63709;53.258;-8.814;2023-05-08T09:10:53;101217.53;;;19.38;100.00
64340;BME280;63709;53.258;-8.814;2023-05-08T09:13:20;101214.63;;;19.31;100.00
64340;BME280;63709;53.258;-8.814;2023-05-08T09:15:45;101203.28;;;19.28;100.00
64340;BME280;63709;53.258;-8.814;2023-05-08T09:18:11;101217.84;;;19.35;100.00
64340;BME280;63709;53.258;-8.814;2023-05-08T09:20:39;101225.00;;;19.36;100.00
64340;BME280;63709;53.258;-8.814;2023-05-08T09:23:05;101202.41;;;19.19;100.00
64340;BME280;63709;53.258;-8.814;2023-05-08T09:25:43;101212.78;;;19.32;100.00
64340;BME280;63709;53.258;-8.814;2023-05-08T09:28:16;101212.81;;;19.40;100.00
64340;BME280;63709;53.258;-8.814;2023-05-08T09:30:55;101195.16;;;19.28;100.00
64340;BME280;63709;53.258;-8.814;2023-05-08T09:33:24;101207.69;;;19.29;100.00
64340;BME280;63709;53.258;-8.814;2023-05-08T09:35:50;101204.66;;;19.32;100.00
64340;BME280;63709;53.258;-8.814;2023-05-08T09:41:10;101191.78;;;19.26;100.00
64340;BME280;63709;53.258;-8.814;2023-05-08T09:43:36;101196.06;;;19.37;100.00
64340;BME280;63709;53.258;-8.814;2023-05-08T09:48:43;101198.66;;;19.54;100.00
64340;BME280;63709;53.258;-8.814;2023-05-08T09:51:10;101196.09;;;19.53;100.00
64340;BME280;63709;53.258;-8.814;2023-05-08T09:53:35;101206.84;;;19.63;100.00
64340;BME280;63709;53.258;-8.814;2023-05-08T09:56:01;101202.47;;;19.78;100.00
64340;BME280;63709;53.258;-8.814;2023-05-08T09:58:37;101209.91;;;19.76;100.00
64340;BME280;63709;53.258;-8.814;2023-05-08T10:01:03;101192.47;;;19.78;100.00
64340;BME280;63709;53.258;-8.814;2023-05-08T10:03:47;101199.59;;;19.79;100.00
64340;BME280;63709;53.258;-8.814;2023-05-08T10:06:14;101198.09;;;19.85;100.00
64340;BME280;63709;53.258;-8.814;2023-05-08T10:08:39;101181.97;;;19.67;100.00
64340;BME280;63709;53.258;-8.814;2023-05-08T10:11:18;101202.81;;;19.75;100.00
64340;BME280;63709;53.258;-8.814;2023-05-08T10:13:46;101212.16;;;19.89;100.00
64340;BME280;63709;53.258;-8.814;2023-05-08T10:16:16;101217.72;;;19.87;100.00
64340;BME280;63709;53.258;-8.814;2023-05-08T10:18:46;101221.81;;;19.99;100.00
64340;BME280;63709;53.258;-8.814;2023-05-08T10:21:13;101219.13;;;19.99;100.00
64340;BME280;63709;53.258;-8.814;2023-05-08T10:23:41;101224.53;;;19.99;100.00
64340;BME280;63709;53.258;-8.814;2023-05-08T10:26:15;101213.34;;;19.94;100.00
64340;BME280;63709;53.258;-8.814;2023-05-08T10:28:54;101226.88;;;19.86;100.00
64340;BME280;63709;53.258;-8.814;2023-05-08T10:31:23;101219.75;;;19.85;100.00
64340;BME280;63709;53.258;-8.814;2023-05-08T10:33:54;101210.25;;;19.73;100.00
64340;BME280;63709;53.258;-8.814;2023-05-08T10:36:22;101224.47;;;19.75;100.00
64340;BME280;63709;53.258;-8.814;2023-05-08T10:38:48;101229.88;;;19.67;100.00
64340;BME280;63709;53.258;-8.814;2023-05-08T10:41:14;101234.03;;;19.61;100.00
64340;BME280;63709;53.258;-8.814;2023-05-08T10:43:41;101222.50;;;19.51;100.00
64340;BME280;63709;53.258;-8.814;2023-05-08T10:46:14;101242.31;;;19.51;100.00
64340;BME280;63709;53.258;-8.814;2023-05-08T10:48:55;101226.03;;;19.43;100.00
64340;BME280;63709;53.258;-8.814;2023-05-08T10:52:06;101236.66;;;19.37;100.00
64340;BME280;63709;53.258;-8.814;2023-05-08T10:57:17;101239.28;;;19.54;100.00
64340;BME280;63709;53.258;-8.814;2023-05-08T10:59:46;101232.13;;;19.45;100.00
64340;BME280;63709;53.258;-8.814;2023-05-08T11:02:12;101239.94;;;19.56;100.00
64340;BME280;63709;53.258;-8.814;2023-05-08T11:04:37;101231.63;;;19.50;100.00
64340;BME280;63709;53.258;-8.814;2023-05-08T11:07:03;101238.78;;;19.59;100.00
64340;BME280;63709;53.258;-8.814;2023-05-08T11:14:54;101248.19;;;19.73;100.00
64340;BME280;63709;53.258;-8.814;2023-05-08T11:17:23;101237.34;;;19.73;100.00
64340;BME280;63709;53.258;-8.814;2023-05-08T11:19:57;101243.56;;;19.65;100.00
64340;BME280;63709;53.258;-8.814;2023-05-08T11:22:31;101214.97;;;19.71;100.00
64340;BME280;63709;53.258;-8.814;2023-05-08T11:25:02;101232.47;;;19.85;100.00
64340;BME280;63709;53.258;-8.814;2023-05-08T11:27:34;101233.16;;;19.95;100.00
64340;BME280;63709;53.258;-8.814;2023-05-08T11:40:46;101250.91;;;19.81;100.00
64340;BME280;63709;53.258;-8.814;2023-05-08T11:46:18;101237.06;;;20.00;100.00
64340;BME280;63709;53.258;-8.814;2023-05-08T11:48:44;101233.69;;;20.39;100.00
64340;BME280;63709;53.258;-8.814;2023-05-08T11:51:09;101244.41;;;20.57;100.00
64340;BME280;63709;53.258;-8.814;2023-05-08T11:53:36;101243.53;;;20.97;100.00
64340;BME280;63709;53.258;-8.814;2023-05-08T11:56:02;101229.38;;;21.26;100.00
64340;BME280;63709;53.258;-8.814;2023-05-08T11:58:28;101241.19;;;21.50;100.00
64340;BME280;63709;53.258;-8.814;2023-05-08T12:00:53;101228.13;;;21.45;100.00
64340;BME280;63709;53.258;-8.814;2023-05-08T12:03:23;101232.41;;;21.32;100.00
64340;BME280;63709;53.258;-8.814;2023-05-08T12:05:50;101216.38;;;21.53;100.00
64340;BME280;63709;53.258;-8.814;2023-05-08T12:08:15;101236.31;;;21.37;100.00
64340;BME280;63709;53.258;-8.814;2023-05-08T12:10:56;101225.91;;;21.80;100.00
64340;BME280;63709;53.258;-8.814;2023-05-08T12:13:28;101214.84;;;21.59;100.00
64340;BME280;63709;53.258;-8.814;2023-05-08T12:15:58;101219.34;;;21.43;100.00
64340;BME280;63709;53.258;-8.814;2023-05-08T12:18:28;101220.72;;;21.23;100.00
64340;BME280;63709;53.258;-8.814;2023-05-08T12:20:58;101235.72;;;21.02;100.00
64340;BME280;63709;53.258;-8.814;2023-05-08T12:23:28;101226.94;;;20.92;100.00
64340;BME280;63709;53.258;-8.814;2023-05-08T12:25:57;101222.72;;;20.73;100.00
64340;BME280;63709;53.258;-8.814;2023-05-08T12:28:23;101212.53;;;20.75;100.00
64340;BME280;63709;53.258;-8.814;2023-05-08T12:30:51;101222.22;;;20.70;100.00
64340;BME280;63709;53.258;-8.814;2023-05-08T12:33:20;101218.16;;;20.66;100.00
64340;BME280;63709;53.258;-8.814;2023-05-08T12:35:48;101221.88;;;20.57;100.00
64340;BME280;63709;53.258;-8.814;2023-05-08T12:38:15;101224.59;;;20.57;100.00
64340;BME280;63709;53.258;-8.814;2023-05-08T12:40:42;101225.59;;;20.72;100.00
64340;BME280;63709;53.258;-8.814;2023-05-08T12:43:08;101220.00;;;20.73;100.00
64340;BME280;63709;53.258;-8.814;2023-05-08T12:45:36;101225.09;;;20.68;100.00
64340;BME280;63709;53.258;-8.814;2023-05-08T12:48:11;101229.66;;;20.76;100.00
64340;BME280;63709;53.258;-8.814;2023-05-08T12:50:41;101223.22;;;20.77;100.00
64340;BME280;63709;53.258;-8.814;2023-05-08T12:53:08;101212.69;;;20.82;100.00
64340;BME280;63709;53.258;-8.814;2023-05-08T12:55:35;101226.94;;;20.92;100.00
64340;BME280;63709;53.258;-8.814;2023-05-08T12:58:12;101230.31;;;20.86;100.00
64340;BME280;63709;53.258;-8.814;2023-05-08T13:00:45;101221.72;;;20.66;100.00
64340;BME280;63709;53.258;-8.814;2023-05-08T13:03:12;101240.38;;;20.69;100.00
64340;BME280;63709;53.258;-8.814;2023-05-08T13:05:44;101228.31;;;20.64;100.00
64340;BME280;63709;53.258;-8.814;2023-05-08T13:08:12;101223.56;;;20.74;100.00
64340;BME280;63709;53.258;-8.814;2023-05-08T13:10:52;101237.13;;;20.74;100.00
64340;BME280;63709;53.258;-8.814;2023-05-08T13:13:22;101237.16;;;20.66;100.00
64340;BME280;63709;53.258;-8.814;2023-05-08T13:15:49;101239.34;;;20.62;100.00
64340;BME280;63709;53.258;-8.814;2023-05-08T13:18:15;101225.94;;;20.44;100.00
64340;BME280;63709;53.258;-8.814;2023-05-08T13:20:41;101234.78;;;20.54;100.00
64340;BME280;63709;53.258;-8.814;2023-05-08T13:23:07;101238.78;;;20.42;100.00
64340;BME280;63709;53.258;-8.814;2023-05-08T13:25:35;101236.25;;;20.49;100.00
64340;BME280;63709;53.258;-8.814;2023-05-08T13:28:00;101223.25;;;20.52;100.00
64340;BME280;63709;53.258;-8.814;2023-05-08T13:30:26;101222.88;;;20.47;100.00
64340;BME280;63709;53.258;-8.814;2023-05-08T13:32:52;101240.16;;;20.46;100.00
64340;BME280;63709;53.258;-8.814;2023-05-08T13:35:18;101236.63;;;20.54;100.00
64340;BME280;63709;53.258;-8.814;2023-05-08T13:37:44;101224.75;;;20.47;100.00
64340;BME280;63709;53.258;-8.814;2023-05-08T13:40:10;101238.34;;;20.55;100.00
64340;BME280;63709;53.258;-8.814;2023-05-08T13:42:43;101224.41;;;20.50;100.00
64340;BME280;63709;53.258;-8.814;2023-05-08T13:45:15;101239.19;;;20.56;100.00
64340;BME280;63709;53.258;-8.814;2023-05-08T13:47:48;101245.63;;;20.54;100.00
64340;BME280;63709;53.258;-8.814;2023-05-08T13:50:15;101251.03;;;20.63;100.00
64340;BME280;63709;53.258;-8.814;2023-05-08T13:52:42;101241.53;;;20.50;100.00
64340;BME280;63709;53.258;-8.814;2023-05-08T13:55:09;101250.34;;;20.36;100.00
64340;BME280;63709;53.258;-8.814;2023-05-08T13:57:35;101243.03;;;20.28;100.00
64340;BME280;63709;53.258;-8.814;2023-05-08T14:00:01;101246.56;;;20.21;100.00
64340;BME280;63709;53.258;-8.814;2023-05-08T14:02:28;101244.53;;;20.15;100.00
64340;BME280;63709;53.258;-8.814;2023-05-08T14:04:53;101246.56;;;20.04;100.00
64340;BME280;63709;53.258;-8.814;2023-05-08T14:07:19;101243.50;;;19.91;100.00
64340;BME280;63709;53.258;-8.814;2023-05-08T14:09:45;101250.06;;;19.80;100.00
64340;BME280;63709;53.258;-8.814;2023-05-08T14:12:11;101250.19;;;19.71;100.00
64340;BME280;63709;53.258;-8.814;2023-05-08T14:14:37;101260.69;;;19.66;100.00
64340;BME280;63709;53.258;-8.814;2023-05-08T14:17:03;101259.72;;;19.83;100.00
64340;BME280;63709;53.258;-8.814;2023-05-08T14:19:29;101265.75;;;19.69;100.00
64340;BME280;63709;53.258;-8.814;2023-05-08T14:21:54;101240.75;;;19.49;100.00
64340;BME280;63709;53.258;-8.814;2023-05-08T14:24:20;101259.22;;;19.53;100.00
64340;BME280;63709;53.258;-8.814;2023-05-08T14:26:46;101263.59;;;19.46;100.00
64340;BME280;63709;53.258;-8.814;2023-05-08T14:29:12;101258.69;;;19.50;100.00
64340;BME280;63709;53.258;-8.814;2023-05-08T14:31:39;101254.34;;;19.23;100.00
64340;BME280;63709;53.258;-8.814;2023-05-08T14:34:04;101252.38;;;19.33;100.00
64340;BME280;63709;53.258;-8.814;2023-05-08T14:36:30;101246.25;;;19.65;100.00
64340;BME280;63709;53.258;-8.814;2023-05-08T14:38:56;101233.63;;;19.74;100.00
64340;BME280;63709;53.258;-8.814;2023-05-08T14:41:22;101238.06;;;19.91;100.00
64340;BME280;63709;53.258;-8.814;2023-05-08T14:43:51;101238.63;;;20.19;100.00
64340;BME280;63709;53.258;-8.814;2023-05-08T14:46:16;101220.00;;;20.33;100.00
64340;BME280;63709;53.258;-8.814;2023-05-08T14:48:43;101218.50;;;20.63;100.00
64340;BME280;63709;53.258;-8.814;2023-05-08T14:51:08;101228.50;;;20.62;100.00
64340;BME280;63709;53.258;-8.814;2023-05-08T14:53:36;101223.22;;;20.77;100.00
64340;BME280;63709;53.258;-8.814;2023-05-08T14:56:01;101228.63;;;20.85;100.00
64340;BME280;63709;53.258;-8.814;2023-05-08T14:58:27;101221.72;;;20.58;100.00
64340;BME280;63709;53.258;-8.814;2023-05-08T15:00:53;101209.81;;;20.75;100.00
64340;BME280;63709;53.258;-8.814;2023-05-08T15:03:18;101221.72;;;20.66;100.00
64340;BME280;63709;53.258;-8.814;2023-05-08T15:05:44;101232.72;;;20.65;100.00
64340;BME280;63709;53.258;-8.814;2023-05-08T15:08:11;101228.47;;;20.54;100.00
64340;BME280;63709;53.258;-8.814;2023-05-08T15:10:37;101231.72;;;20.74;100.00
64340;BME280;63709;53.258;-8.814;2023-05-08T15:13:02;101216.44;;;20.73;100.00
64340;BME280;63709;53.258;-8.814;2023-05-08T15:15:27;101224.22;;;20.76;100.00
64340;BME280;63709;53.258;-8.814;2023-05-08T15:17:53;101218.31;;;20.81;100.00
64340;BME280;63709;53.258;-8.814;2023-05-08T15:20:18;101226.28;;;20.74;100.00
64340;BME280;63709;53.258;-8.814;2023-05-08T15:22:45;101221.19;;;20.79;100.00
64340;BME280;63709;53.258;-8.814;2023-05-08T15:25:10;101225.50;;;21.13;100.00
64340;BME280;63709;53.258;-8.814;2023-05-08T15:27:38;101224.78;;;21.43;100.00
64340;BME280;63709;53.258;-8.814;2023-05-08T15:30:04;101219.63;;;21.48;100.00
64340;BME280;63709;53.258;-8.814;2023-05-08T15:32:29;101219.56;;;21.65;100.00
64340;BME280;63709;53.258;-8.814;2023-05-08T15:34:55;101229.66;;;21.79;100.00
64340;BME280;63709;53.258;-8.814;2023-05-08T15:37:20;101225.41;;;22.08;100.00
64340;BME280;63709;53.258;-8.814;2023-05-08T15:39:46;101216.16;;;22.25;100.00
64340;BME280;63709;53.258;-8.814;2023-05-08T15:42:12;101225.47;;;21.99;100.00
64340;BME280;63709;53.258;-8.814;2023-05-08T15:44:38;101222.06;;;21.74;100.00
64340;BME280;63709;53.258;-8.814;2023-05-08T15:47:05;101227.41;;;21.60;100.00
64340;BME280;63709;53.258;-8.814;2023-05-08T15:49:30;101218.84;;;21.71;100.00
64340;BME280;63709;53.258;-8.814;2023-05-08T15:51:56;101236.31;;;21.37;100.00
64340;BME280;63709;53.258;-8.814;2023-05-08T15:54:23;101220.13;;;21.83;100.00
64340;BME280;63709;53.258;-8.814;2023-05-08T15:57:16;101222.50;;;22.09;100.00
64340;BME280;63709;53.258;-8.814;2023-05-08T15:59:56;101206.94;;;22.03;100.00
64340;BME280;63709;53.258;-8.814;2023-05-08T16:05:43;101232.03;;;21.82;100.00
64340;BME280;63709;53.258;-8.814;2023-05-08T16:08:08;101220.41;;;21.96;100.00
64340;BME280;63709;53.258;-8.814;2023-05-08T16:10:36;101212.72;;;21.69;100.00
64340;BME280;63709;53.258;-8.814;2023-05-08T16:13:02;101215.19;;;21.56;100.00
64340;BME280;63709;53.258;-8.814;2023-05-08T16:15:30;101199.50;;;21.35;100.00
64340;BME280;63709;53.258;-8.814;2023-05-08T16:17:55;101220.38;;;21.34;100.00
64340;BME280;63709;53.258;-8.814;2023-05-08T16:20:22;101238.25;;;21.60;100.00
64340;BME280;63709;53.258;-8.814;2023-05-08T16:22:51;101231.53;;;21.47;100.00
64340;BME280;63709;53.258;-8.814;2023-05-08T16:25:17;101233.78;;;21.36;100.00
64340;BME280;63709;53.258;-8.814;2023-05-08T16:27:42;101238.22;;;21.29;100.00
64340;BME280;63709;53.258;-8.814;2023-05-08T16:30:08;101241.28;;;21.09;100.00
64340;BME280;63709;53.258;-8.814;2023-05-08T16:32:33;101238.19;;;21.37;100.00
64340;BME280;63709;53.258;-8.814;2023-05-08T16:34:59;101241.41;;;21.32;100.00
64340;BME280;63709;53.258;-8.814;2023-05-08T16:37:24;101236.56;;;21.11;100.00
64340;BME280;63709;53.258;-8.814;2023-05-08T16:39:50;101240.44;;;21.09;100.00
64340;BME280;63709;53.258;-8.814;2023-05-08T16:42:15;101232.50;;;20.91;100.00
64340;BME280;63709;53.258;-8.814;2023-05-08T16:44:43;101230.00;;;20.40;100.00
64340;BME280;63709;53.258;-8.814;2023-05-08T16:47:08;101231.69;;;20.58;100.00
64340;BME280;63709;53.258;-8.814;2023-05-08T16:49:34;101238.78;;;20.18;100.00
64340;BME280;63709;53.258;-8.814;2023-05-08T16:51:59;101222.03;;;20.22;100.00
64340;BME280;63709;53.258;-8.814;2023-05-08T16:54:25;101251.00;;;20.30;100.00
64340;BME280;63709;53.258;-8.814;2023-05-08T16:56:51;101247.41;;;20.05;100.00
64340;BME280;63709;53.258;-8.814;2023-05-08T16:59:16;101254.34;;;19.99;100.00
64340;BME280;63709;53.258;-8.814;2023-05-08T17:01:42;101261.06;;;19.87;100.00
64340;BME280;63709;53.258;-8.814;2023-05-08T17:04:07;101248.50;;;19.70;100.00
64340;BME280;63709;53.258;-8.814;2023-05-08T17:06:33;101259.50;;;19.68;100.00
64340;BME280;63709;53.258;-8.814;2023-05-08T17:08:59;101261.63;;;19.56;100.00
64340;BME280;63709;53.258;-8.814;2023-05-08T17:11:25;101269.59;;;19.58;100.00
64340;BME280;63709;53.258;-8.814;2023-05-08T17:13:50;101269.19;;;19.45;100.00
64340;BME280;63709;53.258;-8.814;2023-05-08T17:16:16;101267.47;;;19.36;100.00
64340;BME280;63709;53.258;-8.814;2023-05-08T17:18:41;101252.28;;;19.17;100.00
64340;BME280;63709;53.258;-8.814;2023-05-08T17:21:06;101269.50;;;19.07;100.00
64340;BME280;63709;53.258;-8.814;2023-05-08T17:23:32;101254.91;;;19.00;100.00
64340;BME280;63709;53.258;-8.814;2023-05-08T17:25:58;101273.09;;;19.16;100.00
64340;BME280;63709;53.258;-8.814;2023-05-08T17:28:23;101285.78;;;19.16;100.00
64340;BME280;63709;53.258;-8.814;2023-05-08T17:30:49;101272.19;;;19.07;100.00
64340;BME280;63709;53.258;-8.814;2023-05-08T17:33:15;101271.88;;;19.10;100.00
64340;BME280;63709;53.258;-8.814;2023-05-08T17:35:41;101268.16;;;19.12;100.00
64340;BME280;63709;53.258;-8.814;2023-05-08T17:38:06;101260.78;;;19.22;100.00
64340;BME280;63709;53.258;-8.814;2023-05-08T17:40:33;101281.72;;;19.20;100.00
64340;BME280;63709;53.258;-8.814;2023-05-08T17:42:58;101257.97;;;19.05;100.00
64340;BME280;63709;53.258;-8.814;2023-05-08T17:45:25;101249.03;;;18.87;100.00
64340;BME280;63709;53.258;-8.814;2023-05-08T17:47:51;101284.16;;;19.05;100.00
64340;BME280;63709;53.258;-8.814;2023-05-08T17:50:16;101286.56;;;19.08;100.00
64340;BME280;63709;53.258;-8.814;2023-05-08T17:52:42;101258.97;;;18.78;100.00
64340;BME280;63709;53.258;-8.814;2023-05-08T17:55:07;101247.97;;;18.80;100.00
64340;BME280;63709;53.258;-8.814;2023-05-08T17:57:33;101277.34;;;18.93;100.00
64340;BME280;63709;53.258;-8.814;2023-05-08T17:59:58;101256.53;;;18.93;100.00
64340;BME280;63709;53.258;-8.814;2023-05-08T18:02:24;101243.63;;;18.87;100.00
64340;BME280;63709;53.258;-8.814;2023-05-08T18:04:49;101234.16;;;18.83;100.00
64340;BME280;63709;53.258;-8.814;2023-05-08T18:07:15;101238.97;;;18.97;100.00
64340;BME280;63709;53.258;-8.814;2023-05-08T18:09:40;101247.00;;;19.07;100.00
64340;BME280;63709;53.258;-8.814;2023-05-08T18:12:06;101246.47;;;19.03;100.00
64340;BME280;63709;53.258;-8.814;2023-05-08T18:14:31;101267.84;;;19.15;100.00
64340;BME280;63709;53.258;-8.814;2023-05-08T18:16:58;101245.41;;;18.96;100.00